Time;durP1;ratioP1;P1;durP2;ratioP2;P2;SDS_P1;SDS_P2;PMS_P1;PMS_P2;Temp;Humidity;BMP_temperature;BMP_pressure;BME280_temperature;BME280_humidity;BME280_pressure;Samples;Min_cycle;Max_cycle;Signal;HPM_P1;HPM_P2
2021/05/23 00:00:41;;;;;;;4.43;0.60;;;9.10;84.20;;;;;;4791899;29;20067;-83
2021/05/23 00:03:13;;;;;;;2.35;0.32;;;9.10;84.10;;;;;;4793844;29;20082;-84
2021/05/23 00:05:42;;;;;;;4.25;0.47;;;9.20;83.90;;;;;;4761553;30;20059;-84
2021/05/23 00:08:16;;;;;;;0.30;0.28;;;9.20;83.90;;;;;;4794880;29;20153;-83
2021/05/23 00:10:47;;;;;;;1.77;0.63;;;9.10;83.90;;;;;;4781741;30;20055;-83
2021/05/23 00:13:17;;;;;;;0.80;0.30;;;8.90;84.30;;;;;;4777692;29;20350;-83
2021/05/23 00:15:47;;;;;;;2.03;0.57;;;8.80;84.70;;;;;;4796210;29;20358;-85
2021/05/23 00:18:17;;;;;;;2.83;0.57;;;8.80;84.80;;;;;;4764605;30;20066;-83
2021/05/23 00:20:44;;;;;;;2.58;0.63;;;8.70;85.10;;;;;;4789270;29;20051;-84
2021/05/23 00:23:11;;;;;;;0.70;0.32;;;8.50;85.50;;;;;;4789954;29;20063;-82
2021/05/23 00:25:40;;;;;;;4.40;0.80;;;8.40;86.10;;;;;;4793266;29;20043;-82
2021/05/23 00:28:16;;;;;;;2.50;0.70;;;8.30;86.70;;;;;;4796894;30;20055;-84
2021/05/23 00:30:43;;;;;;;2.90;0.50;;;8.10;87.20;;;;;;4778571;30;20127;-85
2021/05/23 00:33:12;;;;;;;3.53;0.73;;;8.00;87.80;;;;;;4777693;30;20063;-84
2021/05/23 00:35:42;;;;;;;1.48;0.55;;;8.00;88.00;;;;;;4764992;30;20093;-83
2021/05/23 00:38:14;;;;;;;5.10;0.70;;;7.90;88.10;;;;;;4792528;29;20114;-83
2021/05/23 00:40:41;;;;;;;4.15;0.80;;;7.90;88.30;;;;;;4791839;29;20057;-82
2021/05/23 00:43:10;;;;;;;1.58;0.38;;;7.80;88.40;;;;;;4791911;29;20043;-82
2021/05/23 00:45:38;;;;;;;2.53;0.30;;;7.70;88.60;;;;;;4787909;29;20074;-81
2021/05/23 00:48:09;;;;;;;1.08;0.32;;;7.70;88.80;;;;;;4790431;29;20059;-85
2021/05/23 00:50:42;;;;;;;3.85;0.50;;;7.70;88.90;;;;;;4793299;29;20400;-82
2021/05/23 00:53:11;;;;;;;2.45;0.20;;;7.70;88.80;;;;;;4760826;30;20083;-83
2021/05/23 00:55:39;;;;;;;1.08;0.50;;;7.70;88.60;;;;;;4788575;29;20050;-81
2021/05/23 00:58:09;;;;;;;1.88;0.60;;;7.80;88.30;;;;;;4777844;30;20245;-82
2021/05/23 01:01:40;;;;;;;0.77;0.50;;;7.80;87.90;;;;;;4792986;29;20273;-83
2021/05/23 01:04:07;;;;;;;;;;;7.90;87.80;;;;;;4788247;29;20063;-83
2021/05/23 01:06:34;;;;;;;2.15;0.40;;;7.90;87.50;;;;;;4764489;30;19960;-84
2021/05/23 01:09:03;;;;;;;1.70;0.45;;;7.90;87.40;;;;;;4779365;30;20051;-83
2021/05/23 01:12:09;;;;;;;1.27;0.38;;;7.90;87.50;;;;;;4796829;29;20066;-86
2021/05/23 01:14:51;;;;;;;1.75;0.30;;;7.90;87.50;;;;;;4789328;29;20067;-84
2021/05/23 01:17:24;;;;;;;1.45;0.47;;;7.90;87.60;;;;;;4798836;29;20047;-83
2021/05/23 01:20:03;;;;;;;1.23;0.45;;;7.80;87.30;;;;;;4790320;29;20043;-85
2021/05/23 01:22:39;;;;;;;1.08;0.40;;;7.80;87.50;;;;;;4799808;29;20071;-83
2021/05/23 01:25:12;;;;;;;0.75;0.43;;;7.70;87.50;;;;;;4786300;30;20051;-83
2021/05/23 01:27:45;;;;;;;1.40;0.47;;;7.70;87.60;;;;;;4797568;29;20059;-83
2021/05/23 01:30:16;;;;;;;2.17;0.30;;;7.70;87.60;;;;;;4782504;30;20055;-82
2021/05/23 01:32:46;;;;;;;1.02;0.30;;;7.70;87.60;;;;;;4796550;29;20405;-84
2021/05/23 01:35:18;;;;;;;1.15;0.50;;;7.70;87.50;;;;;;4795639;29;20066;-84
2021/05/23 01:37:52;;;;;;;1.50;0.80;;;7.80;87.60;;;;;;4794514;29;20047;-83
2021/05/23 01:40:21;;;;;;;1.55;0.38;;;7.70;87.60;;;;;;4780207;30;20051;-82
2021/05/23 01:42:49;;;;;;;3.67;1.10;;;7.70;87.70;;;;;;4795807;29;20326;-83
2021/05/23 01:45:17;;;;;;;4.45;1.25;;;7.70;87.70;;;;;;4776079;30;20071;-83
2021/05/23 01:47:45;;;;;;;2.55;0.77;;;7.60;87.90;;;;;;4801146;29;20069;-84
2021/05/23 01:50:13;;;;;;;2.42;0.30;;;7.60;88.00;;;;;;4796741;29;20066;-83
2021/05/23 01:52:49;;;;;;;2.70;0.60;;;7.50;88.30;;;;;;4797413;29;20105;-84
2021/05/23 01:55:18;;;;;;;2.42;0.70;;;7.40;88.20;;;;;;4796362;29;20070;-84
2021/05/23 01:57:47;;;;;;;1.77;0.70;;;7.30;88.50;;;;;;4782048;30;20271;-83
2021/05/23 02:00:18;;;;;;;2.17;0.52;;;7.40;88.70;;;;;;4778780;30;20114;-83
2021/05/23 02:02:45;;;;;;;1.65;0.73;;;7.30;88.90;;;;;;4782246;30;20051;-84
2021/05/23 02:05:14;;;;;;;1.40;0.35;;;7.30;89.10;;;;;;4794221;30;20055;-83
2021/05/23 02:07:42;;;;;;;0.68;0.40;;;7.30;89.00;;;;;;4797993;30;20050;-85
2021/05/23 02:10:11;;;;;;;1.67;0.50;;;7.20;89.10;;;;;;4797281;29;20047;-83
2021/05/23 02:12:39;;;;;;;3.03;0.40;;;7.20;89.20;;;;;;4797187;29;20110;-82
2021/05/23 02:15:11;;;;;;;2.53;0.40;;;7.20;89.30;;;;;;4796634;29;20075;-83
2021/05/23 02:17:38;;;;;;;1.30;0.40;;;7.20;89.40;;;;;;4795234;29;20062;-85
2021/05/23 02:20:11;;;;;;;0.95;0.40;;;7.20;89.30;;;;;;4810167;29;20051;-83
2021/05/23 02:22:38;;;;;;;2.80;1.00;;;7.20;89.10;;;;;;4797061;30;20063;-82
2021/05/23 02:25:08;;;;;;;8.45;0.82;;;7.20;88.70;;;;;;4798224;29;20059;-84
2021/05/23 02:27:37;;;;;;;2.25;0.60;;;7.20;88.40;;;;;;4809307;29;20063;-82
2021/05/23 02:30:12;;;;;;;2.03;0.30;;;7.10;88.60;;;;;;4793439;29;20347;-83
2021/05/23 02:32:42;;;;;;;2.80;0.40;;;7.10;88.90;;;;;;4791741;29;20059;-83
2021/05/23 02:35:10;;;;;;;2.15;0.60;;;7.00;89.10;;;;;;4791103;29;20058;-83
2021/05/23 02:37:40;;;;;;;5.53;1.02;;;7.00;89.30;;;;;;4805183;29;20043;-82
2021/05/23 02:40:10;;;;;;;0.85;0.40;;;7.00;89.60;;;;;;4777728;30;20135;-82
2021/05/23 02:42:38;;;;;;;0.50;0.30;;;7.00;89.80;;;;;;4785650;29;20291;-83
2021/05/23 02:45:08;;;;;;;1.15;0.40;;;7.10;89.60;;;;;;4789362;29;20058;-84
2021/05/23 02:47:37;;;;;;;2.97;0.55;;;7.10;89.60;;;;;;4788649;29;20266;-86
2021/05/23 02:50:08;;;;;;;1.85;0.77;;;7.20;89.40;;;;;;4788589;30;20059;-82
2021/05/23 02:52:36;;;;;;;1.48;0.40;;;7.20;89.40;;;;;;4770084;30;20220;-83
2021/05/23 02:55:06;;;;;;;1.17;0.47;;;7.30;89.10;;;;;;4789941;29;20070;-83
2021/05/23 02:57:33;;;;;;;1.40;0.63;;;7.40;88.80;;;;;;4790988;29;20075;-83
2021/05/23 03:00:00;;;;;;;1.48;0.60;;;7.50;88.70;;;;;;4798219;29;20119;-84
2021/05/23 03:02:29;;;;;;;1.17;0.50;;;7.70;88.70;;;;;;4786689;29;20043;-85
2021/05/23 03:05:00;;;;;;;1.63;0.57;;;7.70;88.30;;;;;;4788189;29;20112;-83
2021/05/23 03:07:37;;;;;;;2.05;0.50;;;7.90;88.10;;;;;;4790010;29;20043;-83
2021/05/23 03:10:07;;;;;;;2.20;0.70;;;7.90;87.70;;;;;;4772171;30;20062;-83
2021/05/23 03:12:35;;;;;;;1.90;0.50;;;8.00;87.50;;;;;;4784845;29;20345;-84
2021/05/23 03:15:03;;;;;;;3.03;0.93;;;8.00;87.50;;;;;;4784842;29;20219;-83
2021/05/23 03:17:34;;;;;;;1.63;0.40;;;8.10;87.50;;;;;;4773683;30;20059;-83
2021/05/23 03:20:16;;;;;;;1.75;0.55;;;8.20;87.50;;;;;;4760450;30;20055;-84
2021/05/23 03:22:43;;;;;;;;;;;8.30;87.10;;;;;;4770515;29;20070;-83
2021/05/23 03:25:13;;;;;;;1.92;0.43;;;8.40;86.80;;;;;;4790909;29;20381;-84
2021/05/23 03:27:40;;;;;;;2.33;0.60;;;8.40;86.60;;;;;;4771965;30;20134;-86
2021/05/23 03:30:10;;;;;;;5.90;0.70;;;8.40;86.60;;;;;;4779098;29;20238;-84
2021/05/23 03:32:38;;;;;;;1.75;0.60;;;8.40;86.60;;;;;;4789970;29;20063;-83
2021/05/23 03:35:06;;;;;;;0.80;0.35;;;8.50;86.80;;;;;;4789879;29;20082;-83
2021/05/23 03:37:34;;;;;;;0.95;0.50;;;8.50;86.70;;;;;;4778127;29;20059;-83
2021/05/23 03:40:04;;;;;;;1.63;0.60;;;8.50;86.50;;;;;;4792358;29;20047;-83
2021/05/23 03:42:31;;;;;;;4.50;0.70;;;8.60;86.30;;;;;;4781256;30;20082;-84
2021/05/23 03:44:59;;;;;;;1.17;0.47;;;8.50;86.50;;;;;;4790592;29;20372;-83
2021/05/23 03:47:25;;;;;;;1.15;0.40;;;8.50;86.70;;;;;;4763361;30;20050;-83
2021/05/23 03:49:53;;;;;;;0.88;0.30;;;8.60;86.80;;;;;;4779289;29;20067;-85
2021/05/23 03:52:22;;;;;;;0.90;0.30;;;8.60;86.70;;;;;;4778592;30;20087;-85
2021/05/23 03:54:51;;;;;;;1.40;0.82;;;8.70;86.70;;;;;;4794791;29;20066;-82
2021/05/23 03:57:20;;;;;;;2.50;0.45;;;8.70;86.40;;;;;;4789508;29;20051;-82
2021/05/23 03:59:50;;;;;;;2.30;0.52;;;8.80;86.10;;;;;;4788822;29;20051;-83
2021/05/23 04:02:17;;;;;;;2.17;0.65;;;9.00;85.70;;;;;;4791500;29;20110;-86
2021/05/23 04:04:48;;;;;;;1.60;0.57;;;9.00;85.70;;;;;;4795960;29;20069;-83
2021/05/23 04:07:20;;;;;;;2.45;0.40;;;9.10;85.80;;;;;;4797236;29;20066;-85
2021/05/23 04:09:48;;;;;;;1.15;0.32;;;9.20;85.80;;;;;;4794088;29;20090;-83
2021/05/23 04:12:20;;;;;;;0.90;0.30;;;9.20;85.20;;;;;;4793929;29;20063;-83
2021/05/23 04:14:47;;;;;;;2.17;0.68;;;9.30;84.90;;;;;;4793972;30;20074;-85
2021/05/23 04:17:14;;;;;;;1.65;0.30;;;9.30;85.00;;;;;;4792184;29;20058;-87
2021/05/23 04:19:42;;;;;;;0.95;0.38;;;9.40;84.80;;;;;;4794258;29;20250;-85
2021/05/23 04:22:10;;;;;;;1.58;0.40;;;9.40;84.50;;;;;;4805222;29;20055;-84
2021/05/23 04:24:39;;;;;;;0.77;0.35;;;9.50;84.50;;;;;;4789189;29;20147;-85
2021/05/23 04:27:07;;;;;;;3.17;0.40;;;9.60;84.30;;;;;;4794297;29;20070;-83
2021/05/23 04:29:37;;;;;;;0.82;0.40;;;9.60;84.00;;;;;;4808012;29;20051;-83
2021/05/23 04:32:13;;;;;;;4.88;0.70;;;9.70;83.90;;;;;;4793133;29;20141;-83
2021/05/23 04:34:40;;;;;;;5.22;0.55;;;9.70;83.00;;;;;;4794855;29;20377;-84
2021/05/23 04:37:08;;;;;;;1.92;0.50;;;9.70;82.80;;;;;;4795198;29;20116;-84
2021/05/23 04:39:35;;;;;;;2.90;0.50;;;9.80;83.00;;;;;;4794236;29;20067;-83
2021/05/23 04:42:04;;;;;;;2.67;0.40;;;9.80;82.70;;;;;;4791192;29;20367;-83
2021/05/23 04:44:31;;;;;;;1.83;0.75;;;9.90;82.70;;;;;;4793385;29;20084;-83
2021/05/23 04:47:03;;;;;;;1.20;0.30;;;10.00;82.80;;;;;;4792865;29;20586;-84
2021/05/23 04:49:31;;;;;;;2.28;0.63;;;10.10;82.40;;;;;;4792367;29;20331;-82
2021/05/23 04:52:07;;;;;;;2.55;0.45;;;10.10;82.40;;;;;;4790880;29;20058;-84
2021/05/23 04:54:36;;;;;;;1.90;0.50;;;10.20;82.10;;;;;;4792204;29;20134;-82
2021/05/23 04:57:08;;;;;;;6.18;1.00;;;10.30;81.70;;;;;;4792935;29;20123;-83
2021/05/23 04:59:35;;;;;;;3.80;0.60;;;10.20;81.70;;;;;;4789756;29;20083;-84
2021/05/23 05:02:10;;;;;;;0.57;0.30;;;10.20;81.80;;;;;;4788703;29;20047;-82
2021/05/23 05:04:37;;;;;;;2.80;0.40;;;10.20;81.60;;;;;;4790730;29;20267;-82
2021/05/23 05:07:09;;;;;;;2.25;0.80;;;10.20;81.50;;;;;;4789277;29;20073;-82
2021/05/23 05:09:36;;;;;;;1.35;0.68;;;10.40;81.20;;;;;;4792880;29;20051;-83
2021/05/23 05:12:13;;;;;;;1.20;0.43;;;10.30;80.90;;;;;;4804215;29;20053;-84
2021/05/23 05:14:46;;;;;;;0.95;0.25;;;10.40;80.90;;;;;;4791078;29;20411;-82
2021/05/23 05:17:14;;;;;;;1.73;0.40;;;10.40;80.80;;;;;;4792617;29;20139;-83
2021/05/23 05:19:41;;;;;;;2.03;0.60;;;10.30;81.00;;;;;;4785843;29;20063;-84
2021/05/23 05:22:08;;;;;;;1.40;0.50;;;10.40;80.70;;;;;;4790477;29;20274;-83
2021/05/23 05:24:35;;;;;;;1.85;0.60;;;10.50;80.50;;;;;;4806120;29;20418;-85
2021/05/23 05:27:05;;;;;;;2.28;0.63;;;10.50;79.60;;;;;;4778718;30;20058;-82
2021/05/23 05:29:32;;;;;;;1.20;0.57;;;10.70;79.60;;;;;;4787590;29;20085;-83
2021/05/23 05:32:01;;;;;;;1.02;0.30;;;10.60;79.70;;;;;;4791985;29;20058;-83
2021/05/23 05:34:33;;;;;;;3.00;0.70;;;10.60;79.20;;;;;;4794449;29;20071;-82
2021/05/23 05:37:01;;;;;;;1.88;0.50;;;10.60;79.30;;;;;;4789224;29;20231;-84
2021/05/23 05:39:28;;;;;;;0.90;0.30;;;10.60;79.20;;;;;;4790116;29;20051;-83
2021/05/23 05:41:56;;;;;;;2.00;0.40;;;10.60;79.70;;;;;;4790181;29;20059;-83
2021/05/23 05:44:23;;;;;;;4.35;0.50;;;10.60;79.10;;;;;;4775167;30;20468;-84
2021/05/23 05:46:54;;;;;;;1.42;0.60;;;10.80;79.00;;;;;;4792860;29;20346;-84
2021/05/23 05:49:27;;;;;;;3.53;0.43;;;10.70;78.50;;;;;;4790262;29;20126;-84
2021/05/23 05:51:55;;;;;;;1.13;0.50;;;10.70;79.20;;;;;;4774036;30;20305;-83
2021/05/23 05:54:22;;;;;;;1.38;0.60;;;10.60;79.00;;;;;;4790986;30;20059;-83
2021/05/23 05:56:49;;;;;;;1.00;0.40;;;10.60;78.60;;;;;;4790042;29;20062;-82
2021/05/23 05:59:16;;;;;;;2.38;0.57;;;10.70;78.30;;;;;;4790824;29;20362;-82
2021/05/23 06:01:43;;;;;;;2.70;0.60;;;10.70;78.20;;;;;;4773446;29;20067;-84
2021/05/23 06:04:10;;;;;;;2.63;0.43;;;10.70;78.30;;;;;;4800025;29;20064;-84
2021/05/23 06:06:38;;;;;;;2.53;0.70;;;10.80;78.20;;;;;;4787661;29;20047;-84
2021/05/23 06:09:20;;;;;;;1.80;0.50;;;10.80;78.50;;;;;;4789871;29;20070;-84
2021/05/23 06:11:48;;;;;;;0.57;0.40;;;11.00;78.40;;;;;;4785494;29;20369;-83
2021/05/23 06:14:18;;;;;;;2.05;0.32;;;11.20;77.50;;;;;;4788200;29;20059;-84
2021/05/23 06:16:45;;;;;;;2.78;0.63;;;11.30;76.40;;;;;;4775850;29;20065;-82
2021/05/23 06:19:12;;;;;;;1.38;0.47;;;11.20;76.80;;;;;;4785529;29;20059;-82
2021/05/23 06:21:41;;;;;;;3.33;0.57;;;11.10;77.00;;;;;;4774522;29;20137;-83
2021/05/23 06:24:11;;;;;;;2.45;0.52;;;10.90;77.40;;;;;;4786021;29;20150;-83
2021/05/23 06:26:41;;;;;;;1.52;0.52;;;11.10;77.50;;;;;;4786725;29;20115;-83
2021/05/23 06:29:09;;;;;;;2.28;0.47;;;11.30;76.60;;;;;;4769572;29;20180;-82
2021/05/23 06:31:36;;;;;;;5.70;0.50;;;11.40;76.30;;;;;;4775420;30;20055;-84
2021/05/23 06:34:03;;;;;;;1.15;0.45;;;11.50;75.80;;;;;;4791409;29;20059;-83
2021/05/23 06:36:30;;;;;;;0.82;0.40;;;11.60;75.60;;;;;;4775674;29;20241;-81
2021/05/23 06:38:59;;;;;;;2.92;0.63;;;11.70;75.10;;;;;;4769340;29;20054;-83
2021/05/23 06:41:26;;;;;;;1.65;0.38;;;11.70;74.90;;;;;;4776225;30;20043;-85
2021/05/23 06:43:58;;;;;;;1.48;0.38;;;11.80;74.30;;;;;;4786096;29;20058;-82
2021/05/23 06:46:25;;;;;;;1.50;0.50;;;11.70;74.30;;;;;;4789170;29;20406;-82
2021/05/23 06:48:53;;;;;;;1.65;0.50;;;11.70;74.70;;;;;;4789580;29;20062;-84
2021/05/23 06:51:20;;;;;;;1.80;0.63;;;11.70;74.50;;;;;;4775151;29;20377;-82
2021/05/23 06:53:48;;;;;;;1.65;0.60;;;11.70;74.80;;;;;;4786560;29;20235;-84
2021/05/23 06:56:15;;;;;;;1.27;0.40;;;11.70;74.40;;;;;;4775184;30;20059;-83
2021/05/23 06:58:42;;;;;;;1.45;0.43;;;11.70;74.50;;;;;;4783669;29;20136;-83
2021/05/23 07:01:11;;;;;;;3.17;0.43;;;11.60;74.30;;;;;;4769925;30;20398;-83
2021/05/23 07:03:38;;;;;;;1.55;0.50;;;11.60;73.80;;;;;;4790168;29;20058;-84
2021/05/23 07:06:07;;;;;;;2.67;0.70;;;11.60;73.70;;;;;;4790896;29;20081;-84
2021/05/23 07:08:34;;;;;;;1.40;0.40;;;11.60;73.50;;;;;;4791066;29;20279;-82
2021/05/23 07:11:07;;;;;;;2.97;0.93;;;11.80;73.20;;;;;;4791260;29;20043;-83
2021/05/23 07:13:35;;;;;;;3.05;0.50;;;12.00;72.90;;;;;;4769691;29;20085;-83
2021/05/23 07:16:08;;;;;;;1.90;0.40;;;12.10;72.70;;;;;;4789277;29;20062;-82
2021/05/23 07:18:37;;;;;;;1.75;0.52;;;12.40;71.40;;;;;;4791352;29;20073;-83
2021/05/23 07:21:10;;;;;;;2.20;0.60;;;12.20;70.90;;;;;;4776129;30;20347;-82
2021/05/23 07:23:38;;;;;;;1.33;0.60;;;12.50;70.00;;;;;;4775926;29;20043;-83
2021/05/23 07:26:06;;;;;;;2.15;0.50;;;12.60;70.00;;;;;;4774698;29;20231;-85
2021/05/23 07:28:33;;;;;;;1.77;0.82;;;12.70;68.60;;;;;;4777051;30;20059;-85
2021/05/23 07:31:07;;;;;;;5.13;0.60;;;12.50;68.80;;;;;;4776612;29;20059;-82
2021/05/23 07:33:37;;;;;;;3.70;0.77;;;12.20;69.70;;;;;;4773375;29;20088;-83
2021/05/23 07:36:06;;;;;;;1.27;0.60;;;12.50;69.60;;;;;;4792281;29;20070;-82
2021/05/23 07:38:34;;;;;;;3.10;1.07;;;12.70;68.20;;;;;;4777224;29;20268;-83
2021/05/23 07:41:03;;;;;;;7.85;0.80;;;12.90;68.90;;;;;;4780149;30;20046;-82
2021/05/23 07:43:30;;;;;;;1.50;0.60;;;12.90;67.80;;;;;;4777133;29;20075;-82
2021/05/23 07:45:57;;;;;;;1.05;0.55;;;12.90;67.80;;;;;;4787180;29;20078;-82
2021/05/23 07:48:27;;;;;;;1.15;0.60;;;12.90;68.00;;;;;;4787586;29;20067;-82
2021/05/23 07:50:58;;;;;;;0.93;0.40;;;12.90;67.10;;;;;;4779448;29;20059;-82
2021/05/23 07:53:25;;;;;;;1.13;0.40;;;13.00;66.40;;;;;;4786302;29;20059;-84
2021/05/23 07:55:52;;;;;;;2.25;0.60;;;13.20;66.50;;;;;;4793771;29;20335;-82
2021/05/23 07:58:22;;;;;;;5.05;0.73;;;13.10;65.80;;;;;;4778854;29;20354;-84
2021/05/23 08:00:49;;;;;;;1.75;0.70;;;13.00;66.70;;;;;;4758397;29;20051;-84
2021/05/23 08:03:16;;;;;;;1.80;0.77;;;13.00;66.60;;;;;;4791455;29;20081;-84
2021/05/23 08:05:44;;;;;;;2.15;0.70;;;12.90;65.50;;;;;;4742600;30;20095;-84
2021/05/23 08:08:12;;;;;;;3.00;1.02;;;12.90;66.50;;;;;;4764477;30;20075;-82
2021/05/23 08:10:39;;;;;;;1.75;0.57;;;13.10;65.00;;;;;;4772649;30;20051;-84
2021/05/23 08:13:06;;;;;;;1.15;0.52;;;13.20;63.90;;;;;;4771930;30;20078;-83
2021/05/23 08:15:37;;;;;;;0.75;0.40;;;13.30;63.20;;;;;;4772514;30;20074;-83
2021/05/23 08:18:04;;;;;;;1.35;0.50;;;13.70;63.20;;;;;;4770910;30;20334;-83
2021/05/23 08:20:32;;;;;;;1.02;0.50;;;13.80;61.10;;;;;;4768283;30;20054;-84
2021/05/23 08:22:59;;;;;;;2.05;0.45;;;13.80;60.10;;;;;;4773114;29;20058;-83
2021/05/23 08:25:30;;;;;;;3.28;0.45;;;13.50;61.70;;;;;;4756872;30;20068;-83
2021/05/23 08:27:58;;;;;;;;;;;13.80;60.70;;;;;;4759979;30;20216;-84
2021/05/23 08:30:25;;;;;;;4.13;1.55;;;13.70;61.40;;;;;;4775981;30;20176;-82
2021/05/23 08:32:52;;;;;;;2.38;0.50;;;13.60;61.20;;;;;;4758334;30;20539;-82
2021/05/23 08:35:20;;;;;;;1.17;0.60;;;13.50;60.70;;;;;;4759229;30;20220;-82
2021/05/23 08:37:47;;;;;;;2.20;0.47;;;13.40;60.80;;;;;;4767461;30;20055;-82
2021/05/23 08:40:15;;;;;;;4.47;0.57;;;13.80;59.80;;;;;;4776293;30;20048;-82
2021/05/23 08:42:46;;;;;;;1.40;0.50;;;14.10;58.80;;;;;;4758600;30;20047;-84
2021/05/23 08:45:14;;;;;;;1.25;0.45;;;14.10;57.80;;;;;;4773833;30;20071;-82
2021/05/23 08:47:45;;;;;;;1.83;0.70;;;14.10;57.00;;;;;;4769126;30;20094;-85
2021/05/23 08:50:15;;;;;;;0.73;0.38;;;14.30;57.80;;;;;;4768689;30;20165;-83
2021/05/23 08:52:45;;;;;;;1.83;0.40;;;14.20;58.50;;;;;;4757538;30;20362;-84
2021/05/23 08:55:15;;;;;;;1.58;0.47;;;13.90;58.20;;;;;;4759053;30;20276;-84
2021/05/23 08:57:42;;;;;;;0.70;0.30;;;13.50;57.80;;;;;;4757803;30;20105;-83
2021/05/23 09:00:12;;;;;;;1.40;0.35;;;13.60;59.30;;;;;;4756214;30;20071;-82
2021/05/23 09:02:53;;;;;;;2.20;0.80;;;13.70;59.10;;;;;;4723487;30;20097;-83
2021/05/23 09:05:31;;;;;;;2.60;0.40;;;14.10;58.30;;;;;;317063;30;10022963;-82
2021/05/23 09:08:01;;;;;;;1.08;0.52;;;14.70;56.90;;;;;;4792012;29;20063;-82
2021/05/23 09:10:31;;;;;;;0.85;0.57;;;14.90;55.90;;;;;;4775813;30;20057;-83
2021/05/23 09:12:58;;;;;;;1.05;0.45;;;14.80;54.60;;;;;;4792265;29;20066;-83
2021/05/23 09:15:27;;;;;;;1.30;0.30;;;15.00;55.10;;;;;;4788769;29;20219;-82
2021/05/23 09:18:19;;;;;;;0.77;0.40;;;15.10;54.50;;;;;;4778834;29;20081;-85
2021/05/23 09:20:47;;;;;;;1.73;0.50;;;14.90;54.40;;;;;;4796232;29;20316;-83
2021/05/23 09:23:19;;;;;;;2.17;0.40;;;15.10;54.00;;;;;;4795468;29;20108;-83
2021/05/23 09:25:53;;;;;;;1.05;0.30;;;14.70;53.30;;;;;;4775512;29;20080;-82
2021/05/23 09:28:32;;;;;;;1.67;0.63;;;15.00;52.30;;;;;;4781284;30;20055;-83
2021/05/23 09:31:11;;;;;;;2.05;0.60;;;15.10;51.20;;;;;;4799288;29;20480;-84
2021/05/23 09:33:42;;;;;;;5.47;1.08;;;15.10;54.30;;;;;;4792048;29;20051;-83
2021/05/23 09:36:12;;;;;;;0.30;0.30;;;15.20;53.70;;;;;;4798023;29;20130;-83
2021/05/23 09:38:54;;;;;;;1.00;0.50;;;15.20;51.90;;;;;;4777760;30;20071;-83
2021/05/23 09:41:24;;;;;;;1.08;0.63;;;15.30;53.50;;;;;;4793886;29;20138;-83
2021/05/23 09:44:12;;;;;;;2.42;0.52;;;15.30;52.20;;;;;;4792818;29;20281;-83
2021/05/23 09:46:51;;;;;;;2.05;0.60;;;15.00;54.30;;;;;;4788488;29;20058;-84
2021/05/23 09:49:19;;;;;;;1.33;0.50;;;14.90;55.50;;;;;;4778728;29;20376;-83
2021/05/23 09:51:51;;;;;;;2.05;0.50;;;14.70;55.40;;;;;;4788430;29;20054;-83
2021/05/23 09:54:23;;;;;;;1.92;0.60;;;14.90;54.30;;;;;;4789658;29;20063;-83
2021/05/23 09:56:51;;;;;;;1.98;0.43;;;15.10;54.00;;;;;;4788100;29;20063;-82
2021/05/23 09:59:20;;;;;;;2.00;0.80;;;15.60;52.40;;;;;;4776542;29;20092;-84
2021/05/23 10:01:48;;;;;;;1.80;0.35;;;15.10;52.90;;;;;;4788952;29;20059;-82
2021/05/23 10:04:20;;;;;;;1.08;0.40;;;14.90;52.50;;;;;;4786991;29;20058;-85
2021/05/23 10:06:59;;;;;;;1.50;0.65;;;14.80;54.20;;;;;;4786376;29;20275;-85
2021/05/23 10:09:27;;;;;;;1.58;0.25;;;14.60;55.40;;;;;;4790311;29;20083;-83
2021/05/23 10:11:55;;;;;;;3.53;0.70;;;14.60;54.80;;;;;;4793161;29;20087;-83
2021/05/23 10:14:24;;;;;;;0.88;0.40;;;14.80;55.50;;;;;;4794534;29;20100;-83
2021/05/23 10:16:52;;;;;;;4.97;0.55;;;16.00;52.60;;;;;;4773133;30;20058;-81
2021/05/23 10:19:23;;;;;;;1.83;0.60;;;16.90;49.50;;;;;;4791254;29;20345;-85
2021/05/23 10:21:51;;;;;;;1.10;0.60;;;17.10;47.40;;;;;;4777061;29;20067;-82
2021/05/23 10:24:26;;;;;;;0.90;0.43;;;16.40;50.30;;;;;;4773641;29;20059;-84
2021/05/23 10:27:00;;;;;;;1.33;0.52;;;15.40;52.30;;;;;;4786534;29;20060;-83
2021/05/23 10:29:46;;;;;;;2.05;1.15;;;15.40;52.70;;;;;;4760336;29;20043;-84
2021/05/23 10:32:16;;;;;;;3.05;0.50;;;15.20;51.30;;;;;;4793233;29;20123;-84
2021/05/23 10:34:47;;;;;;;2.83;0.57;;;16.70;48.40;;;;;;4787320;29;20346;-82
2021/05/23 10:37:17;;;;;;;1.08;0.40;;;18.60;42.80;;;;;;4777169;30;20066;-83
2021/05/23 10:39:49;;;;;;;1.65;0.28;;;18.30;43.50;;;;;;4790302;29;20250;-86
2021/05/23 10:42:19;;;;;;;2.17;0.47;;;17.10;45.30;;;;;;4796720;29;20381;-82
2021/05/23 10:44:50;;;;;;;1.67;0.40;;;16.30;46.30;;;;;;4781414;30;20051;-81
2021/05/23 10:47:18;;;;;;;1.20;0.28;;;15.70;48.10;;;;;;4789037;29;20059;-82
2021/05/23 10:49:55;;;;;;;1.30;0.40;;;15.60;49.00;;;;;;4764370;30;20361;-85
2021/05/23 10:52:23;;;;;;;1.38;0.50;;;16.60;47.40;;;;;;4790028;29;20047;-82
2021/05/23 10:55:02;;;;;;;0.98;0.40;;;17.40;46.10;;;;;;4789350;29;20074;-82
2021/05/23 10:57:48;;;;;;;1.40;0.50;;;19.80;41.30;;;;;;4764480;30;20051;-82
2021/05/23 11:00:19;;;;;;;0.57;0.30;;;20.30;39.90;;;;;;4789559;29;20077;-84
2021/05/23 11:02:47;;;;;;;3.00;0.30;;;20.60;39.10;;;;;;4795079;29;20051;-83
2021/05/23 11:05:17;;;;;;;2.08;0.40;;;18.70;41.50;;;;;;4789238;29;20055;-84
2021/05/23 11:07:55;;;;;;;;;;;17.30;44.80;;;;;;4796175;29;20065;-82
2021/05/23 11:10:24;;;;;;;2.28;0.40;;;17.00;47.00;;;;;;4795888;29;19930;-83
2021/05/23 11:12:57;;;;;;;0.98;0.30;;;17.10;46.80;;;;;;4790700;30;20184;-82
2021/05/23 11:15:26;;;;;;;1.20;0.40;;;16.60;47.20;;;;;;4775656;29;20080;-85
2021/05/23 11:17:55;;;;;;;2.75;1.08;;;16.90;45.90;;;;;;4775779;29;20181;-82
2021/05/23 11:20:24;;;;;;;1.45;0.40;;;17.10;46.60;;;;;;4789056;29;20063;-83
2021/05/23 11:22:59;;;;;;;2.85;0.32;;;17.20;45.30;;;;;;4805918;29;20135;-82
2021/05/23 11:25:27;;;;;;;1.05;0.30;;;17.20;45.70;;;;;;4790050;29;20070;-82
2021/05/23 11:28:04;;;;;;;1.02;0.40;;;17.30;46.50;;;;;;4811192;29;20048;-84
2021/05/23 11:30:34;;;;;;;1.08;0.40;;;18.10;44.70;;;;;;4794511;29;20113;-83
2021/05/23 11:33:04;;;;;;;3.10;0.55;;;17.80;44.70;;;;;;4804949;29;20067;-84
2021/05/23 11:35:33;;;;;;;;;;;17.20;46.80;;;;;;4797489;30;20058;-83
2021/05/23 11:38:01;;;;;;;0.60;0.15;;;16.80;44.40;;;;;;4798136;29;19928;-81
2021/05/23 11:40:35;;;;;;;2.67;0.63;;;16.90;45.20;;;;;;4793895;29;20054;-85
2021/05/23 11:43:32;;;;;;;0.50;0.20;;;16.60;46.50;;;;;;4796049;29;20055;-83
2021/05/23 11:46:03;;;;;;;0.50;0.28;;;16.30;47.20;;;;;;4792409;29;20066;-83
2021/05/23 11:48:40;;;;;;;0.60;0.20;;;16.60;46.80;;;;;;4801608;29;20073;-84
2021/05/23 11:51:10;;;;;;;2.17;0.40;;;17.40;45.20;;;;;;4800159;29;20360;-83
2021/05/23 11:53:41;;;;;;;2.38;0.50;;;17.80;43.20;;;;;;4813073;29;20082;-84
2021/05/23 11:56:12;;;;;;;1.85;0.30;;;17.60;42.60;;;;;;4794124;29;20073;-82
2021/05/23 11:58:45;;;;;;;1.73;0.30;;;17.20;42.20;;;;;;4801696;30;20043;-84
2021/05/23 12:01:29;;;;;;;2.03;0.50;;;16.60;43.80;;;;;;4792906;30;20078;-86
2021/05/23 12:04:04;;;;;;;0.80;0.40;;;16.10;46.80;;;;;;4796635;29;20086;-82
2021/05/23 12:06:36;;;;;;;1.67;0.70;;;15.60;51.20;;;;;;4783521;29;20063;-84
2021/05/23 12:09:13;;;;;;;1.40;0.60;;;15.90;51.40;;;;;;4793090;29;20112;-85
2021/05/23 12:11:43;;;;;;;2.47;0.30;;;16.30;49.40;;;;;;4782468;30;20178;-83
2021/05/23 12:14:23;;;;;;;1.73;0.57;;;16.30;48.10;;;;;;4781827;29;20061;-85
2021/05/23 12:17:01;;;;;;;2.97;0.68;;;16.90;48.00;;;;;;4765045;30;20070;-87
2021/05/23 12:19:47;;;;;;;1.85;0.50;;;17.90;44.80;;;;;;4789794;29;20051;-82
2021/05/23 12:22:17;;;;;;;0.82;0.32;;;18.40;43.90;;;;;;4796815;29;20059;-83
2021/05/23 12:24:52;;;;;;;0.40;0.13;;;17.20;46.30;;;;;;4787598;29;20054;-83
2021/05/23 12:27:31;;;;;;;0.45;0.10;;;16.80;47.10;;;;;;4793115;29;20059;-82
2021/05/23 12:30:19;;;;;;;2.42;0.50;;;16.10;48.00;;;;;;4782592;29;20119;-82
2021/05/23 12:32:53;;;;;;;0.20;0.20;;;15.40;49.90;;;;;;4788544;29;20065;-82
2021/05/23 12:35:23;;;;;;;1.30;0.55;;;15.30;50.90;;;;;;4765857;30;20160;-83
2021/05/23 12:37:59;;;;;;;2.83;0.43;;;15.00;53.20;;;;;;4798273;29;20055;-82
2021/05/23 12:40:31;;;;;;;0.80;0.30;;;14.70;55.70;;;;;;4782649;29;20177;-82
2021/05/23 12:43:10;;;;;;;1.90;0.43;;;14.50;56.80;;;;;;4781519;29;20078;-81
2021/05/23 12:45:38;;;;;;;1.02;0.30;;;14.70;57.00;;;;;;4783375;29;20063;-81
2021/05/23 12:48:13;;;;;;;0.52;0.20;;;15.40;55.90;;;;;;4793522;29;20070;-83
2021/05/23 12:50:45;;;;;;;1.10;0.30;;;15.90;54.40;;;;;;4792277;29;20169;-82
2021/05/23 12:53:24;;;;;;;0.60;0.30;;;15.90;53.60;;;;;;4794725;29;20134;-83
2021/05/23 12:55:53;;;;;;;1.15;0.30;;;18.80;47.50;;;;;;4795442;29;20047;-81
2021/05/23 12:58:22;;;;;;;0.10;0.10;;;20.50;42.20;;;;;;4782992;29;20088;-82
2021/05/23 13:00:51;;;;;;;0.45;0.20;;;22.20;38.60;;;;;;4776769;30;20066;-82
2021/05/23 13:03:21;;;;;;;1.00;0.90;;;23.70;35.70;;;;;;4777931;29;20059;-85
2021/05/23 13:05:59;;;;;;;0.68;0.20;;;24.40;33.80;;;;;;4797900;30;20059;-83
2021/05/23 13:08:32;;;;;;;1.45;0.60;;;23.10;35.50;;;;;;4797016;29;20102;-85
2021/05/23 13:11:02;;;;;;;2.20;0.63;;;21.20;39.40;;;;;;4793682;29;20050;-84